sensor_id;sensor_type;location;lat;lon;timestamp;P1;durP1;ratioP1;P2;durP2;ratioP2
58697;SDS011;44475;53.206;-6.106;2023-04-03T00:00:55;29.55;;;8.38;;
58697;SDS011;44475;53.206;-6.106;2023-04-03T00:03:22;21.67;;;7.95;;
58697;SDS011;44475;53.206;-6.106;2023-04-03T00:05:48;22.75;;;8.10;;
58697;SDS011;44475;53.206;-6.106;2023-04-03T00:08:15;20.75;;;7.05;;
58697;SDS011;44475;53.206;-6.106;2023-04-03T00:10:41;22.20;;;7.45;;
58697;SDS011;44475;53.206;-6.106;2023-04-03T00:13:07;20.27;;;7.20;;
58697;SDS011;44475;53.206;-6.106;2023-04-03T00:15:34;19.80;;;7.18;;
58697;SDS011;44475;53.206;-6.106;2023-04-03T00:18:01;19.48;;;7.30;;
58697;SDS011;44475;53.206;-6.106;2023-04-03T00:20:28;18.02;;;6.18;;
58697;SDS011;44475;53.206;-6.106;2023-04-03T00:22:54;17.70;;;6.85;;
58697;SDS011;44475;53.206;-6.106;2023-04-03T00:25:21;19.20;;;7.05;;
58697;SDS011;44475;53.206;-6.106;2023-04-03T00:27:47;16.52;;;6.60;;
58697;SDS011;44475;53.206;-6.106;2023-04-03T00:30:15;14.90;;;6.28;;
58697;SDS011;44475;53.206;-6.106;2023-04-03T00:32:43;19.52;;;6.78;;
58697;SDS011;44475;53.206;-6.106;2023-04-03T00:35:09;12.23;;;5.85;;
58697;SDS011;44475;53.206;-6.106;2023-04-03T00:37:36;17.38;;;6.35;;
58697;SDS011;44475;53.206;-6.106;2023-04-03T00:40:03;19.13;;;6.43;;
58697;SDS011;44475;53.206;-6.106;2023-04-03T00:42:30;12.80;;;5.57;;
58697;SDS011;44475;53.206;-6.106;2023-04-03T00:47:22;16.02;;;5.65;;
58697;SDS011;44475;53.206;-6.106;2023-04-03T00:49:49;12.95;;;5.45;;
58697;SDS011;44475;53.206;-6.106;2023-04-03T00:52:17;17.88;;;5.80;;
58697;SDS011;44475;53.206;-6.106;2023-04-03T00:54:48;16.98;;;5.57;;
58697;SDS011;44475;53.206;-6.106;2023-04-03T00:57:17;12.65;;;5.53;;
58697;SDS011;44475;53.206;-6.106;2023-04-03T00:59:48;12.57;;;5.18;;
58697;SDS011;44475;53.206;-6.106;2023-04-03T01:02:19;14.27;;;5.30;;
58697;SDS011;44475;53.206;-6.106;2023-04-03T01:04:45;11.70;;;4.82;;
58697;SDS011;44475;53.206;-6.106;2023-04-03T01:07:14;9.45;;;4.72;;
58697;SDS011;44475;53.206;-6.106;2023-04-03T01:09:48;10.48;;;5.22;;
58697;SDS011;44475;53.206;-6.106;2023-04-03T01:12:19;10.10;;;4.63;;
58697;SDS011;44475;53.206;-6.106;2023-04-03T01:17:37;10.02;;;4.80;;
58697;SDS011;44475;53.206;-6.106;2023-04-03T01:25:36;13.50;;;4.63;;
58697;SDS011;44475;53.206;-6.106;2023-04-03T01:28:05;7.70;;;3.83;;
58697;SDS011;44475;53.206;-6.106;2023-04-03T01:30:34;10.93;;;4.28;;
58697;SDS011;44475;53.206;-6.106;2023-04-03T01:33:07;8.57;;;3.97;;
58697;SDS011;44475;53.206;-6.106;2023-04-03T01:35:33;10.40;;;4.07;;
58697;SDS011;44475;53.206;-6.106;2023-04-03T01:37:59;11.05;;;4.00;;
58697;SDS011;44475;53.206;-6.106;2023-04-03T01:40:25;8.40;;;3.78;;
58697;SDS011;44475;53.206;-6.106;2023-04-03T01:42:52;8.70;;;3.90;;
58697;SDS011;44475;53.206;-6.106;2023-04-03T01:45:18;8.85;;;3.90;;
58697;SDS011;44475;53.206;-6.106;2023-04-03T01:47:44;5.82;;;3.38;;
58697;SDS011;44475;53.206;-6.106;2023-04-03T01:50:11;8.57;;;3.85;;
58697;SDS011;44475;53.206;-6.106;2023-04-03T01:52:37;7.93;;;3.70;;
58697;SDS011;44475;53.206;-6.106;2023-04-03T01:55:03;5.95;;;3.10;;
58697;SDS011;44475;53.206;-6.106;2023-04-03T01:57:30;8.20;;;3.30;;
58697;SDS011;44475;53.206;-6.106;2023-04-03T01:59:57;8.45;;;3.85;;
58697;SDS011;44475;53.206;-6.106;2023-04-03T02:02:23;8.45;;;3.45;;
58697;SDS011;44475;53.206;-6.106;2023-04-03T02:04:50;7.47;;;3.33;;
58697;SDS011;44475;53.206;-6.106;2023-04-03T02:07:17;5.82;;;3.22;;
58697;SDS011;44475;53.206;-6.106;2023-04-03T02:09:43;6.72;;;3.17;;
58697;SDS011;44475;53.206;-6.106;2023-04-03T02:12:09;6.53;;;3.05;;
58697;SDS011;44475;53.206;-6.106;2023-04-03T02:14:36;5.85;;;2.90;;
58697;SDS011;44475;53.206;-6.106;2023-04-03T02:17:02;8.43;;;3.42;;
58697;SDS011;44475;53.206;-6.106;2023-04-03T02:19:30;6.22;;;3.03;;
58697;SDS011;44475;53.206;-6.106;2023-04-03T02:21:57;6.30;;;3.15;;
58697;SDS011;44475;53.206;-6.106;2023-04-03T02:24:29;6.00;;;2.80;;
58697;SDS011;44475;53.206;-6.106;2023-04-03T02:26:58;7.35;;;2.95;;
58697;SDS011;44475;53.206;-6.106;2023-04-03T02:29:25;6.65;;;3.00;;
58697;SDS011;44475;53.206;-6.106;2023-04-03T02:31:52;6.05;;;2.92;;
58697;SDS011;44475;53.206;-6.106;2023-04-03T02:34:20;5.10;;;2.70;;
58697;SDS011;44475;53.206;-6.106;2023-04-03T02:36:46;6.40;;;2.80;;
58697;SDS011;44475;53.206;-6.106;2023-04-03T02:39:13;4.45;;;2.67;;
58697;SDS011;44475;53.206;-6.106;2023-04-03T02:41:40;5.95;;;2.70;;
58697;SDS011;44475;53.206;-6.106;2023-04-03T02:44:12;4.97;;;2.75;;
58697;SDS011;44475;53.206;-6.106;2023-04-03T02:46:38;5.80;;;2.60;;
58697;SDS011;44475;53.206;-6.106;2023-04-03T02:49:04;4.53;;;2.55;;
58697;SDS011;44475;53.206;-6.106;2023-04-03T02:51:31;6.63;;;2.58;;
58697;SDS011;44475;53.206;-6.106;2023-04-03T02:53:58;5.45;;;2.92;;
58697;SDS011;44475;53.206;-6.106;2023-04-03T02:56:28;6.03;;;2.60;;
58697;SDS011;44475;53.206;-6.106;2023-04-03T02:58:54;6.68;;;2.47;;
58697;SDS011;44475;53.206;-6.106;2023-04-03T03:01:21;5.13;;;2.42;;
58697;SDS011;44475;53.206;-6.106;2023-04-03T03:03:47;5.00;;;2.70;;
58697;SDS011;44475;53.206;-6.106;2023-04-03T03:06:15;4.88;;;2.72;;
58697;SDS011;44475;53.206;-6.106;2023-04-03T03:08:42;5.05;;;2.53;;
58697;SDS011;44475;53.206;-6.106;2023-04-03T03:11:08;4.97;;;2.40;;
58697;SDS011;44475;53.206;-6.106;2023-04-03T03:13:35;4.70;;;2.35;;
58697;SDS011;44475;53.206;-6.106;2023-04-03T03:16:02;4.45;;;2.13;;
58697;SDS011;44475;53.206;-6.106;2023-04-03T03:18:29;4.15;;;2.28;;
58697;SDS011;44475;53.206;-6.106;2023-04-03T03:20:56;4.55;;;2.40;;
58697;SDS011;44475;53.206;-6.106;2023-04-03T03:23:25;3.35;;;2.13;;
58697;SDS011;44475;53.206;-6.106;2023-04-03T03:26:02;5.18;;;2.30;;
58697;SDS011;44475;53.206;-6.106;2023-04-03T03:28:32;3.63;;;2.10;;
58697;SDS011;44475;53.206;-6.106;2023-04-03T03:30:59;3.53;;;2.13;;
58697;SDS011;44475;53.206;-6.106;2023-04-03T03:33:26;5.13;;;2.42;;
58697;SDS011;44475;53.206;-6.106;2023-04-03T03:35:52;3.92;;;2.03;;
58697;SDS011;44475;53.206;-6.106;2023-04-03T03:38:20;5.18;;;2.20;;
58697;SDS011;44475;53.206;-6.106;2023-04-03T03:40:47;3.78;;;2.10;;
58697;SDS011;44475;53.206;-6.106;2023-04-03T03:43:16;4.38;;;2.05;;
58697;SDS011;44475;53.206;-6.106;2023-04-03T03:45:43;3.75;;;2.00;;
58697;SDS011;44475;53.206;-6.106;2023-04-03T03:48:10;3.75;;;2.10;;
58697;SDS011;44475;53.206;-6.106;2023-04-03T03:50:37;3.55;;;1.95;;
58697;SDS011;44475;53.206;-6.106;2023-04-03T03:53:03;4.07;;;2.17;;
58697;SDS011;44475;53.206;-6.106;2023-04-03T03:55:30;3.72;;;2.20;;
58697;SDS011;44475;53.206;-6.106;2023-04-03T03:57:57;4.10;;;2.03;;
58697;SDS011;44475;53.206;-6.106;2023-04-03T04:00:27;3.53;;;1.88;;
58697;SDS011;44475;53.206;-6.106;2023-04-03T04:02:55;3.20;;;1.80;;
58697;SDS011;44475;53.206;-6.106;2023-04-03T04:05:22;3.38;;;2.00;;
58697;SDS011;44475;53.206;-6.106;2023-04-03T04:07:49;3.60;;;1.90;;
58697;SDS011;44475;53.206;-6.106;2023-04-03T04:10:16;4.10;;;2.00;;
58697;SDS011;44475;53.206;-6.106;2023-04-03T04:12:43;2.63;;;1.70;;
58697;SDS011;44475;53.206;-6.106;2023-04-03T04:15:10;2.60;;;1.77;;
58697;SDS011;44475;53.206;-6.106;2023-04-03T04:17:37;3.63;;;2.00;;
58697;SDS011;44475;53.206;-6.106;2023-04-03T04:20:06;3.22;;;1.80;;
58697;SDS011;44475;53.206;-6.106;2023-04-03T04:22:34;3.90;;;1.83;;
58697;SDS011;44475;53.206;-6.106;2023-04-03T04:25:00;3.40;;;2.08;;
58697;SDS011;44475;53.206;-6.106;2023-04-03T04:27:26;3.25;;;1.90;;
58697;SDS011;44475;53.206;-6.106;2023-04-03T04:29:53;3.22;;;1.83;;
58697;SDS011;44475;53.206;-6.106;2023-04-03T04:32:20;3.08;;;1.80;;
58697;SDS011;44475;53.206;-6.106;2023-04-03T04:34:47;3.15;;;2.00;;
58697;SDS011;44475;53.206;-6.106;2023-04-03T04:37:14;3.67;;;2.00;;
58697;SDS011;44475;53.206;-6.106;2023-04-03T04:39:40;3.92;;;1.90;;
58697;SDS011;44475;53.206;-6.106;2023-04-03T04:42:07;2.75;;;1.80;;
58697;SDS011;44475;53.206;-6.106;2023-04-03T04:44:38;3.05;;;1.80;;
58697;SDS011;44475;53.206;-6.106;2023-04-03T04:47:06;3.13;;;1.90;;
58697;SDS011;44475;53.206;-6.106;2023-04-03T04:49:32;2.92;;;1.80;;
58697;SDS011;44475;53.206;-6.106;2023-04-03T04:51:59;3.35;;;1.90;;
58697;SDS011;44475;53.206;-6.106;2023-04-03T04:54:29;3.17;;;1.75;;
58697;SDS011;44475;53.206;-6.106;2023-04-03T04:56:56;2.30;;;1.70;;
58697;SDS011;44475;53.206;-6.106;2023-04-03T04:59:23;3.22;;;1.92;;
58697;SDS011;44475;53.206;-6.106;2023-04-03T05:01:51;4.10;;;1.80;;
58697;SDS011;44475;53.206;-6.106;2023-04-03T05:04:17;3.13;;;2.00;;
58697;SDS011;44475;53.206;-6.106;2023-04-03T05:06:48;2.47;;;1.70;;
58697;SDS011;44475;53.206;-6.106;2023-04-03T05:09:19;2.47;;;1.75;;
58697;SDS011;44475;53.206;-6.106;2023-04-03T05:11:46;2.42;;;1.80;;
58697;SDS011;44475;53.206;-6.106;2023-04-03T05:14:15;3.75;;;1.90;;
58697;SDS011;44475;53.206;-6.106;2023-04-03T05:16:42;3.95;;;2.00;;
58697;SDS011;44475;53.206;-6.106;2023-04-03T05:19:08;3.10;;;2.00;;
58697;SDS011;44475;53.206;-6.106;2023-04-03T05:21:36;3.40;;;1.70;;
58697;SDS011;44475;53.206;-6.106;2023-04-03T05:24:07;2.90;;;1.90;;
58697;SDS011;44475;53.206;-6.106;2023-04-03T05:26:37;3.45;;;1.92;;
58697;SDS011;44475;53.206;-6.106;2023-04-03T05:29:04;2.53;;;1.85;;
58697;SDS011;44475;53.206;-6.106;2023-04-03T05:31:31;2.97;;;1.90;;
58697;SDS011;44475;53.206;-6.106;2023-04-03T05:33:58;2.95;;;1.80;;
58697;SDS011;44475;53.206;-6.106;2023-04-03T05:36:26;3.42;;;1.95;;
58697;SDS011;44475;53.206;-6.106;2023-04-03T05:38:57;3.20;;;1.92;;
58697;SDS011;44475;53.206;-6.106;2023-04-03T05:41:24;2.20;;;1.70;;
58697;SDS011;44475;53.206;-6.106;2023-04-03T05:43:50;2.65;;;1.92;;
58697;SDS011;44475;53.206;-6.106;2023-04-03T05:46:19;2.17;;;1.70;;
58697;SDS011;44475;53.206;-6.106;2023-04-03T05:48:50;3.03;;;1.90;;
58697;SDS011;44475;53.206;-6.106;2023-04-03T05:51:22;3.20;;;1.67;;
58697;SDS011;44475;53.206;-6.106;2023-04-03T05:53:55;2.08;;;1.63;;
58697;SDS011;44475;53.206;-6.106;2023-04-03T05:56:43;2.47;;;1.80;;
58697;SDS011;44475;53.206;-6.106;2023-04-03T05:59:10;2.75;;;1.90;;
58697;SDS011;44475;53.206;-6.106;2023-04-03T06:01:37;3.30;;;1.90;;
58697;SDS011;44475;53.206;-6.106;2023-04-03T06:04:03;3.92;;;1.88;;
58697;SDS011;44475;53.206;-6.106;2023-04-03T06:06:49;3.38;;;1.98;;
58697;SDS011;44475;53.206;-6.106;2023-04-03T06:09:20;5.30;;;1.80;;
58697;SDS011;44475;53.206;-6.106;2023-04-03T06:11:48;3.42;;;1.90;;
58697;SDS011;44475;53.206;-6.106;2023-04-03T06:14:15;3.00;;;1.88;;
58697;SDS011;44475;53.206;-6.106;2023-04-03T06:16:41;2.20;;;1.80;;
58697;SDS011;44475;53.206;-6.106;2023-04-03T06:19:08;2.88;;;2.05;;
58697;SDS011;44475;53.206;-6.106;2023-04-03T06:21:40;3.40;;;2.00;;
58697;SDS011;44475;53.206;-6.106;2023-04-03T06:24:07;3.13;;;1.90;;
58697;SDS011;44475;53.206;-6.106;2023-04-03T06:26:34;2.72;;;1.92;;
58697;SDS011;44475;53.206;-6.106;2023-04-03T06:29:01;2.70;;;1.80;;
58697;SDS011;44475;53.206;-6.106;2023-04-03T06:31:27;3.28;;;2.10;;
58697;SDS011;44475;53.206;-6.106;2023-04-03T06:33:54;4.03;;;1.98;;
58697;SDS011;44475;53.206;-6.106;2023-04-03T06:36:21;3.08;;;1.85;;
58697;SDS011;44475;53.206;-6.106;2023-04-03T06:38:47;3.70;;;2.10;;
58697;SDS011;44475;53.206;-6.106;2023-04-03T06:41:14;3.00;;;2.10;;
58697;SDS011;44475;53.206;-6.106;2023-04-03T06:43:41;3.55;;;1.90;;
58697;SDS011;44475;53.206;-6.106;2023-04-03T06:46:14;3.70;;;2.05;;
58697;SDS011;44475;53.206;-6.106;2023-04-03T06:48:42;2.88;;;2.00;;
58697;SDS011;44475;53.206;-6.106;2023-04-03T06:51:25;3.70;;;2.10;;
58697;SDS011;44475;53.206;-6.106;2023-04-03T06:53:54;3.50;;;2.00;;
58697;SDS011;44475;53.206;-6.106;2023-04-03T06:56:24;4.38;;;2.20;;
58697;SDS011;44475;53.206;-6.106;2023-04-03T06:58:52;2.92;;;1.95;;
58697;SDS011;44475;53.206;-6.106;2023-04-03T07:01:20;3.35;;;1.95;;
58697;SDS011;44475;53.206;-6.106;2023-04-03T07:03:46;3.88;;;2.00;;
58697;SDS011;44475;53.206;-6.106;2023-04-03T07:06:14;3.85;;;2.03;;
58697;SDS011;44475;53.206;-6.106;2023-04-03T07:08:41;2.92;;;2.00;;
58697;SDS011;44475;53.206;-6.106;2023-04-03T07:11:09;4.00;;;2.13;;
58697;SDS011;44475;53.206;-6.106;2023-04-03T07:13:36;3.22;;;2.17;;
58697;SDS011;44475;53.206;-6.106;2023-04-03T07:16:03;2.88;;;2.00;;
58697;SDS011;44475;53.206;-6.106;2023-04-03T07:18:31;2.95;;;2.00;;
58697;SDS011;44475;53.206;-6.106;2023-04-03T07:20:58;5.18;;;2.10;;
58697;SDS011;44475;53.206;-6.106;2023-04-03T07:23:25;2.90;;;2.10;;
58697;SDS011;44475;53.206;-6.106;2023-04-03T07:25:52;5.75;;;2.05;;
58697;SDS011;44475;53.206;-6.106;2023-04-03T07:28:19;4.38;;;1.95;;
58697;SDS011;44475;53.206;-6.106;2023-04-03T07:31:10;4.20;;;2.03;;
58697;SDS011;44475;53.206;-6.106;2023-04-03T07:33:39;10.27;;;2.13;;
58697;SDS011;44475;53.206;-6.106;2023-04-03T07:36:06;5.78;;;2.20;;
58697;SDS011;44475;53.206;-6.106;2023-04-03T07:38:34;9.60;;;2.10;;
58697;SDS011;44475;53.206;-6.106;2023-04-03T07:41:01;5.72;;;2.00;;
58697;SDS011;44475;53.206;-6.106;2023-04-03T07:43:28;7.97;;;2.33;;
58697;SDS011;44475;53.206;-6.106;2023-04-03T07:45:55;6.38;;;2.30;;
58697;SDS011;44475;53.206;-6.106;2023-04-03T07:48:22;6.13;;;2.15;;
58697;SDS011;44475;53.206;-6.106;2023-04-03T07:50:49;5.63;;;2.38;;
58697;SDS011;44475;53.206;-6.106;2023-04-03T07:53:17;8.13;;;2.10;;
58697;SDS011;44475;53.206;-6.106;2023-04-03T07:55:47;6.03;;;2.10;;
58697;SDS011;44475;53.206;-6.106;2023-04-03T07:58:15;6.72;;;2.20;;
58697;SDS011;44475;53.206;-6.106;2023-04-03T08:00:43;6.13;;;2.13;;
58697;SDS011;44475;53.206;-6.106;2023-04-03T08:03:10;4.35;;;2.00;;
58697;SDS011;44475;53.206;-6.106;2023-04-03T08:05:40;9.27;;;2.30;;
58697;SDS011;44475;53.206;-6.106;2023-04-03T08:08:10;4.47;;;2.35;;
58697;SDS011;44475;53.206;-6.106;2023-04-03T08:10:38;9.85;;;2.60;;
58697;SDS011;44475;53.206;-6.106;2023-04-03T08:13:05;7.45;;;2.40;;
58697;SDS011;44475;53.206;-6.106;2023-04-03T08:15:32;7.57;;;2.20;;
58697;SDS011;44475;53.206;-6.106;2023-04-03T08:17:59;7.13;;;2.22;;
58697;SDS011;44475;53.206;-6.106;2023-04-03T08:20:26;4.10;;;2.25;;
58697;SDS011;44475;53.206;-6.106;2023-04-03T08:22:53;8.10;;;2.28;;
58697;SDS011;44475;53.206;-6.106;2023-04-03T08:25:20;5.25;;;1.92;;
58697;SDS011;44475;53.206;-6.106;2023-04-03T08:27:46;6.22;;;2.10;;
58697;SDS011;44475;53.206;-6.106;2023-04-03T08:30:13;4.10;;;1.90;;
58697;SDS011;44475;53.206;-6.106;2023-04-03T08:32:39;4.65;;;2.20;;
58697;SDS011;44475;53.206;-6.106;2023-04-03T08:35:08;4.05;;;2.10;;
58697;SDS011;44475;53.206;-6.106;2023-04-03T08:37:35;7.75;;;2.15;;
58697;SDS011;44475;53.206;-6.106;2023-04-03T08:40:03;4.05;;;1.95;;
58697;SDS011;44475;53.206;-6.106;2023-04-03T08:42:49;4.05;;;2.28;;
58697;SDS011;44475;53.206;-6.106;2023-04-03T08:48:05;3.50;;;2.05;;
58697;SDS011;44475;53.206;-6.106;2023-04-03T08:50:41;5.45;;;2.00;;
58697;SDS011;44475;53.206;-6.106;2023-04-03T08:53:15;10.63;;;2.17;;
58697;SDS011;44475;53.206;-6.106;2023-04-03T08:55:53;5.95;;;2.10;;
58697;SDS011;44475;53.206;-6.106;2023-04-03T08:58:21;3.80;;;2.00;;
58697;SDS011;44475;53.206;-6.106;2023-04-03T09:01:06;6.45;;;1.95;;
58697;SDS011;44475;53.206;-6.106;2023-04-03T09:03:48;4.32;;;1.83;;
58697;SDS011;44475;53.206;-6.106;2023-04-03T09:06:16;7.65;;;2.10;;
58697;SDS011;44475;53.206;-6.106;2023-04-03T09:08:45;6.18;;;2.17;;
58697;SDS011;44475;53.206;-6.106;2023-04-03T09:11:53;5.00;;;2.13;;
58697;SDS011;44475;53.206;-6.106;2023-04-03T09:14:35;12.52;;;2.42;;
58697;SDS011;44475;53.206;-6.106;2023-04-03T09:17:16;12.23;;;2.40;;
58697;SDS011;44475;53.206;-6.106;2023-04-03T09:19:58;18.00;;;3.00;;
58697;SDS011;44475;53.206;-6.106;2023-04-03T09:22:41;18.90;;;2.78;;
58697;SDS011;44475;53.206;-6.106;2023-04-03T09:27:52;15.82;;;2.75;;
58697;SDS011;44475;53.206;-6.106;2023-04-03T09:30:22;13.38;;;2.58;;
58697;SDS011;44475;53.206;-6.106;2023-04-03T09:32:51;8.50;;;2.20;;
58697;SDS011;44475;53.206;-6.106;2023-04-03T09:35:21;23.00;;;3.08;;
58697;SDS011;44475;53.206;-6.106;2023-04-03T09:38:00;27.75;;;4.10;;
58697;SDS011;44475;53.206;-6.106;2023-04-03T09:42:59;26.63;;;3.50;;
58697;SDS011;44475;53.206;-6.106;2023-04-03T09:45:41;24.63;;;3.45;;
58697;SDS011;44475;53.206;-6.106;2023-04-03T09:48:13;27.30;;;3.20;;
58697;SDS011;44475;53.206;-6.106;2023-04-03T09:58:41;23.00;;;3.38;;
58697;SDS011;44475;53.206;-6.106;2023-04-03T10:04:30;23.07;;;3.37;;
58697;SDS011;44475;53.206;-6.106;2023-04-03T10:06:53;21.05;;;3.03;;
58697;SDS011;44475;53.206;-6.106;2023-04-03T10:09:28;29.33;;;3.80;;
58697;SDS011;44475;53.206;-6.106;2023-04-03T10:12:05;30.77;;;4.13;;
58697;SDS011;44475;53.206;-6.106;2023-04-03T10:14:53;27.85;;;3.83;;
58697;SDS011;44475;53.206;-6.106;2023-04-03T10:17:42;25.20;;;3.40;;
58697;SDS011;44475;53.206;-6.106;2023-04-03T10:20:30;20.83;;;3.50;;
58697;SDS011;44475;53.206;-6.106;2023-04-03T10:23:24;18.58;;;3.25;;
58697;SDS011;44475;53.206;-6.106;2023-04-03T10:31:53;16.87;;;3.10;;
58697;SDS011;44475;53.206;-6.106;2023-04-03T10:34:47;22.17;;;3.38;;
58697;SDS011;44475;53.206;-6.106;2023-04-03T10:37:24;23.10;;;3.60;;
58697;SDS011;44475;53.206;-6.106;2023-04-03T10:46:15;15.38;;;2.80;;
58697;SDS011;44475;53.206;-6.106;2023-04-03T10:48:49;20.88;;;3.20;;
58697;SDS011;44475;53.206;-6.106;2023-04-03T10:51:29;11.82;;;2.72;;
58697;SDS011;44475;53.206;-6.106;2023-04-03T10:54:17;20.75;;;3.20;;
58697;SDS011;44475;53.206;-6.106;2023-04-03T10:56:55;15.90;;;3.22;;
58697;SDS011;44475;53.206;-6.106;2023-04-03T10:59:28;17.00;;;3.08;;
58697;SDS011;44475;53.206;-6.106;2023-04-03T11:02:06;13.75;;;2.90;;
58697;SDS011;44475;53.206;-6.106;2023-04-03T11:04:37;18.05;;;3.00;;
58697;SDS011;44475;53.206;-6.106;2023-04-03T11:07:17;27.13;;;4.15;;
58697;SDS011;44475;53.206;-6.106;2023-04-03T11:09:45;22.10;;;4.07;;
58697;SDS011;44475;53.206;-6.106;2023-04-03T11:12:17;27.55;;;4.03;;
58697;SDS011;44475;53.206;-6.106;2023-04-03T11:14:51;30.42;;;4.13;;
58697;SDS011;44475;53.206;-6.106;2023-04-03T11:17:23;28.20;;;3.55;;
58697;SDS011;44475;53.206;-6.106;2023-04-03T11:22:36;36.05;;;4.03;;
58697;SDS011;44475;53.206;-6.106;2023-04-03T11:25:23;26.33;;;3.78;;
58697;SDS011;44475;53.206;-6.106;2023-04-03T11:27:54;35.05;;;3.80;;
58697;SDS011;44475;53.206;-6.106;2023-04-03T11:36:01;27.92;;;3.78;;
58697;SDS011;44475;53.206;-6.106;2023-04-03T11:38:43;20.98;;;3.58;;
58697;SDS011;44475;53.206;-6.106;2023-04-03T11:41:12;23.98;;;3.58;;
58697;SDS011;44475;53.206;-6.106;2023-04-03T11:43:55;23.67;;;4.07;;
58697;SDS011;44475;53.206;-6.106;2023-04-03T11:55:36;22.23;;;3.35;;
58697;SDS011;44475;53.206;-6.106;2023-04-03T12:05:52;21.98;;;3.42;;
58697;SDS011;44475;53.206;-6.106;2023-04-03T12:08:29;18.50;;;3.08;;
58697;SDS011;44475;53.206;-6.106;2023-04-03T12:13:34;23.23;;;3.38;;
58697;SDS011;44475;53.206;-6.106;2023-04-03T12:21:22;29.92;;;3.90;;
58697;SDS011;44475;53.206;-6.106;2023-04-03T12:23:57;26.65;;;3.47;;
58697;SDS011;44475;53.206;-6.106;2023-04-03T12:29:15;46.75;;;14.30;;
58697;SDS011;44475;53.206;-6.106;2023-04-03T12:34:55;65.18;;;22.83;;
58697;SDS011;44475;53.206;-6.106;2023-04-03T12:45:50;101.28;;;33.90;;
58697;SDS011;44475;53.206;-6.106;2023-04-03T12:48:29;99.20;;;34.00;;
58697;SDS011;44475;53.206;-6.106;2023-04-03T12:50:57;78.15;;;23.25;;
58697;SDS011;44475;53.206;-6.106;2023-04-03T12:53:25;50.60;;;12.05;;
58697;SDS011;44475;53.206;-6.106;2023-04-03T12:55:56;45.67;;;13.77;;
58697;SDS011;44475;53.206;-6.106;2023-04-03T12:58:42;63.15;;;18.23;;
58697;SDS011;44475;53.206;-6.106;2023-04-03T13:01:10;67.50;;;22.75;;
58697;SDS011;44475;53.206;-6.106;2023-04-03T13:03:39;70.22;;;23.90;;
58697;SDS011;44475;53.206;-6.106;2023-04-03T13:06:21;88.22;;;27.55;;
58697;SDS011;44475;53.206;-6.106;2023-04-03T13:08:54;78.32;;;27.88;;
58697;SDS011;44475;53.206;-6.106;2023-04-03T13:11:33;71.28;;;30.17;;
58697;SDS011;44475;53.206;-6.106;2023-04-03T13:14:04;87.90;;;32.30;;
58697;SDS011;44475;53.206;-6.106;2023-04-03T13:16:53;85.13;;;33.70;;
58697;SDS011;44475;53.206;-6.106;2023-04-03T13:19:24;113.90;;;35.50;;
58697;SDS011;44475;53.206;-6.106;2023-04-03T13:21:56;86.88;;;36.20;;
58697;SDS011;44475;53.206;-6.106;2023-04-03T13:24:30;77.30;;;30.38;;
58697;SDS011;44475;53.206;-6.106;2023-04-03T13:27:00;90.47;;;38.35;;
58697;SDS011;44475;53.206;-6.106;2023-04-03T13:29:32;122.32;;;48.00;;
58697;SDS011;44475;53.206;-6.106;2023-04-03T13:34:35;143.20;;;55.03;;
58697;SDS011;44475;53.206;-6.106;2023-04-03T13:37:03;139.82;;;54.83;;
58697;SDS011;44475;53.206;-6.106;2023-04-03T13:39:36;157.60;;;59.67;;
58697;SDS011;44475;53.206;-6.106;2023-04-03T13:42:15;150.75;;;60.78;;
58697;SDS011;44475;53.206;-6.106;2023-04-03T13:45:06;161.68;;;64.63;;
58697;SDS011;44475;53.206;-6.106;2023-04-03T13:47:41;158.95;;;67.63;;
58697;SDS011;44475;53.206;-6.106;2023-04-03T14:00:29;142.68;;;57.05;;
58697;SDS011;44475;53.206;-6.106;2023-04-03T14:02:59;140.90;;;58.50;;
58697;SDS011;44475;53.206;-6.106;2023-04-03T14:05:26;140.45;;;58.92;;
58697;SDS011;44475;53.206;-6.106;2023-04-03T14:07:53;149.90;;;62.90;;
58697;SDS011;44475;53.206;-6.106;2023-04-03T14:10:20;144.50;;;58.88;;
58697;SDS011;44475;53.206;-6.106;2023-04-03T14:12:47;132.55;;;57.85;;
58697;SDS011;44475;53.206;-6.106;2023-04-03T14:15:22;148.02;;;59.20;;
58697;SDS011;44475;53.206;-6.106;2023-04-03T14:17:51;122.43;;;56.08;;
58697;SDS011;44475;53.206;-6.106;2023-04-03T14:20:19;125.55;;;55.33;;
58697;SDS011;44475;53.206;-6.106;2023-04-03T14:22:47;118.40;;;53.20;;
58697;SDS011;44475;53.206;-6.106;2023-04-03T14:25:14;120.32;;;55.55;;
58697;SDS011;44475;53.206;-6.106;2023-04-03T14:27:43;112.85;;;53.97;;
58697;SDS011;44475;53.206;-6.106;2023-04-03T14:30:16;109.38;;;52.30;;
58697;SDS011;44475;53.206;-6.106;2023-04-03T14:32:50;113.68;;;52.80;;
58697;SDS011;44475;53.206;-6.106;2023-04-03T14:35:16;108.80;;;52.60;;
58697;SDS011;44475;53.206;-6.106;2023-04-03T14:37:44;107.28;;;51.53;;
58697;SDS011;44475;53.206;-6.106;2023-04-03T14:40:15;101.88;;;49.50;;
58697;SDS011;44475;53.206;-6.106;2023-04-03T14:42:43;100.38;;;48.15;;
58697;SDS011;44475;53.206;-6.106;2023-04-03T14:45:12;96.60;;;48.50;;
58697;SDS011;44475;53.206;-6.106;2023-04-03T14:47:41;99.88;;;50.35;;
58697;SDS011;44475;53.206;-6.106;2023-04-03T14:50:15;92.57;;;47.15;;
58697;SDS011;44475;53.206;-6.106;2023-04-03T14:52:46;105.30;;;46.40;;
58697;SDS011;44475;53.206;-6.106;2023-04-03T14:55:15;92.70;;;44.30;;
58697;SDS011;44475;53.206;-6.106;2023-04-03T14:57:43;94.03;;;42.88;;
58697;SDS011;44475;53.206;-6.106;2023-04-03T15:00:14;53.97;;;19.77;;
58697;SDS011;44475;53.206;-6.106;2023-04-03T15:02:42;39.17;;;13.85;;
58697;SDS011;44475;53.206;-6.106;2023-04-03T15:05:10;24.25;;;8.75;;
58697;SDS011;44475;53.206;-6.106;2023-04-03T15:07:37;28.55;;;10.20;;
58697;SDS011;44475;53.206;-6.106;2023-04-03T15:12:50;19.95;;;7.28;;
58697;SDS011;44475;53.206;-6.106;2023-04-03T15:15:17;17.90;;;8.40;;
58697;SDS011;44475;53.206;-6.106;2023-04-03T15:17:45;27.33;;;8.93;;
58697;SDS011;44475;53.206;-6.106;2023-04-03T15:20:16;14.63;;;7.15;;
58697;SDS011;44475;53.206;-6.106;2023-04-03T15:22:45;19.88;;;7.22;;
58697;SDS011;44475;53.206;-6.106;2023-04-03T15:25:11;19.13;;;7.90;;
58697;SDS011;44475;53.206;-6.106;2023-04-03T15:27:38;16.35;;;7.47;;
58697;SDS011;44475;53.206;-6.106;2023-04-03T15:30:06;20.23;;;7.93;;
58697;SDS011;44475;53.206;-6.106;2023-04-03T15:32:33;21.10;;;8.73;;
58697;SDS011;44475;53.206;-6.106;2023-04-03T15:35:00;22.85;;;8.57;;
58697;SDS011;44475;53.206;-6.106;2023-04-03T15:37:27;23.05;;;10.02;;
58697;SDS011;44475;53.206;-6.106;2023-04-03T15:39:54;28.67;;;12.48;;
58697;SDS011;44475;53.206;-6.106;2023-04-03T15:42:20;41.55;;;19.73;;
58697;SDS011;44475;53.206;-6.106;2023-04-03T15:44:46;39.58;;;16.67;;
58697;SDS011;44475;53.206;-6.106;2023-04-03T15:47:13;37.85;;;13.98;;
58697;SDS011;44475;53.206;-6.106;2023-04-03T15:49:39;32.40;;;9.85;;
58697;SDS011;44475;53.206;-6.106;2023-04-03T15:52:06;25.55;;;6.65;;
58697;SDS011;44475;53.206;-6.106;2023-04-03T15:54:32;18.20;;;6.80;;
58697;SDS011;44475;53.206;-6.106;2023-04-03T15:56:59;25.58;;;8.18;;
58697;SDS011;44475;53.206;-6.106;2023-04-03T15:59:26;24.02;;;7.20;;
58697;SDS011;44475;53.206;-6.106;2023-04-03T16:01:54;16.10;;;7.50;;
58697;SDS011;44475;53.206;-6.106;2023-04-03T16:04:21;27.73;;;10.50;;
58697;SDS011;44475;53.206;-6.106;2023-04-03T16:06:47;19.88;;;6.78;;
58697;SDS011;44475;53.206;-6.106;2023-04-03T16:09:14;34.13;;;9.48;;
58697;SDS011;44475;53.206;-6.106;2023-04-03T16:11:41;23.88;;;8.60;;
58697;SDS011;44475;53.206;-6.106;2023-04-03T16:14:08;23.95;;;7.80;;
58697;SDS011;44475;53.206;-6.106;2023-04-03T16:16:35;22.63;;;10.00;;
58697;SDS011;44475;53.206;-6.106;2023-04-03T16:19:03;23.40;;;9.20;;
58697;SDS011;44475;53.206;-6.106;2023-04-03T16:21:31;22.60;;;7.85;;
58697;SDS011;44475;53.206;-6.106;2023-04-03T16:23:58;26.30;;;7.63;;
58697;SDS011;44475;53.206;-6.106;2023-04-03T16:26:25;18.55;;;7.00;;